Time;durP1;ratioP1;P1;durP2;ratioP2;P2;SDS_P1;SDS_P2;PMS_P1;PMS_P2;Temp;Humidity;BMP_temperature;BMP_pressure;BME280_temperature;BME280_humidity;BME280_pressure;Samples;Min_cycle;Max_cycle;Signal;HPM_P1;HPM_P2
2022/05/17 00:01:22;;;;;;;6.10;1.98;;;21.20;97.50;;;;;;5089938;27;20040;-79
2022/05/17 00:03:50;;;;;;;2.83;1.85;;;21.10;97.50;;;;;;5090910;27;20051;-80
2022/05/17 00:06:17;;;;;;;2.35;1.33;;;21.20;97.60;;;;;;5109230;27;20098;-79
2022/05/17 00:08:43;;;;;;;3.13;1.30;;;21.10;97.60;;;;;;5108373;27;20043;-79
2022/05/17 00:11:18;;;;;;;3.17;1.60;;;21.20;97.60;;;;;;5092355;27;20076;-79
2022/05/17 00:13:45;;;;;;;2.83;1.60;;;21.10;97.60;;;;;;5090734;27;20067;-80
2022/05/17 00:16:11;;;;;;;3.50;1.95;;;21.10;97.70;;;;;;5089577;27;20050;-79
2022/05/17 00:18:38;;;;;;;3.10;1.50;;;21.10;97.70;;;;;;5086439;27;20032;-79
2022/05/17 00:21:04;;;;;;;3.08;1.25;;;21.10;97.70;;;;;;5092031;27;20070;-79
2022/05/17 00:23:30;;;;;;;4.72;2.15;;;20.20;97.50;;;;;;5088256;27;20683;-79
2022/05/17 00:25:56;;;;;;;3.67;1.40;;;21.10;97.70;;;;;;5109749;27;20039;-79
2022/05/17 00:28:26;;;;;;;4.57;1.42;;;21.10;97.80;;;;;;5109150;27;20046;-79
2022/05/17 00:30:55;;;;;;;4.55;1.60;;;20.80;97.80;;;;;;5109694;27;20094;-79
2022/05/17 00:33:22;;;;;;;10.27;2.45;;;21.10;97.90;;;;;;5110339;27;20612;-79
2022/05/17 00:35:50;;;;;;;5.85;1.98;;;21.10;97.90;;;;;;5091030;27;20052;-79
2022/05/17 00:38:17;;;;;;;3.85;1.98;;;21.10;97.90;;;;;;5111318;27;20121;-79
2022/05/17 00:40:43;;;;;;;6.47;2.75;;;21.20;98.00;;;;;;5090813;27;20047;-80
2022/05/17 00:43:30;;;;;;;3.60;1.98;;;21.10;97.90;;;;;;5095048;27;20564;-79
2022/05/17 00:46:03;;;;;;;3.72;1.15;;;21.10;97.90;;;;;;5089804;27;20044;-79
2022/05/17 00:48:29;;;;;;;3.17;2.00;;;20.70;97.90;;;;;;5089131;27;20533;-79
2022/05/17 00:50:56;;;;;;;3.35;1.42;;;21.10;98.00;;;;;;5089646;27;20564;-79
2022/05/17 00:53:31;;;;;;;2.67;1.17;;;21.00;98.00;;;;;;5104286;27;20051;-79
2022/05/17 00:56:00;;;;;;;8.00;1.77;;;21.00;98.00;;;;;;5091555;27;20097;-79
2022/05/17 00:58:56;;;;;;;2.40;1.35;;;21.00;98.10;;;;;;5110161;27;20052;-79
2022/05/17 01:01:28;;;;;;;3.65;1.98;;;20.90;98.10;;;;;;5110539;27;20503;-78
2022/05/17 01:04:14;;;;;;;3.70;1.52;;;20.90;98.20;;;;;;5090447;27;20050;-79
2022/05/17 01:06:52;;;;;;;2.88;1.33;;;20.80;98.20;;;;;;5108410;27;20043;-80
2022/05/17 01:09:19;;;;;;;3.78;1.63;;;20.80;98.30;;;;;;5111237;27;20043;-78
2022/05/17 01:11:45;;;;;;;3.58;1.42;;;20.80;98.40;;;;;;5089745;27;20043;-79
2022/05/17 01:17:03;;;;;;;8.15;1.58;;;20.70;98.80;;;;;;5106699;27;20146;-79
2022/05/17 01:19:35;;;;;;;2.90;1.48;;;20.80;98.70;;;;;;5111412;27;20557;-79
2022/05/17 01:22:04;;;;;;;3.20;1.50;;;20.80;99.00;;;;;;5110280;27;20556;-79
2022/05/17 01:24:32;;;;;;;5.43;2.10;;;20.80;98.80;;;;;;5088490;27;20432;-79
2022/05/17 01:27:14;;;;;;;4.50;1.40;;;21.20;98.90;;;;;;5091011;27;20047;-78
2022/05/17 01:29:48;;;;;;;3.13;1.63;;;20.80;98.80;;;;;;5080852;27;20150;-79
2022/05/17 01:32:17;;;;;;;2.38;1.40;;;20.80;98.90;;;;;;5082493;27;20040;-79
2022/05/17 01:34:44;;;;;;;4.95;1.40;;;20.90;99.00;;;;;;5090061;27;20044;-79
2022/05/17 01:37:15;;;;;;;4.45;1.65;;;20.90;99.00;;;;;;5088588;28;20048;-79
2022/05/17 01:39:42;;;;;;;4.45;1.40;;;20.80;99.00;;;;;;5099854;27;20050;-79
2022/05/17 01:42:20;;;;;;;3.08;1.52;;;20.80;99.10;;;;;;5087690;28;20074;-79
2022/05/17 01:44:51;;;;;;;4.97;1.58;;;20.90;99.10;;;;;;5087398;28;20137;-79
2022/05/17 01:47:20;;;;;;;2.88;1.60;;;20.60;99.10;;;;;;5079468;28;20044;-80
2022/05/17 01:49:46;;;;;;;3.88;2.25;;;20.80;99.20;;;;;;5087871;28;21286;-79
2022/05/17 01:52:15;;;;;;;3.55;1.58;;;21.20;99.30;;;;;;5087581;28;20044;-79
2022/05/17 01:54:41;;;;;;;5.10;2.63;;;20.70;99.20;;;;;;5082740;28;20048;-78
2022/05/17 01:57:09;;;;;;;2.60;2.03;;;20.70;99.30;;;;;;5087251;28;20040;-79
2022/05/17 01:59:36;;;;;;;3.20;1.33;;;20.70;99.40;;;;;;5096622;27;20783;-79
2022/05/17 02:02:03;;;;;;;4.90;2.35;;;20.70;99.50;;;;;;5086775;28;20044;-79
2022/05/17 02:04:31;;;;;;;2.08;1.23;;;20.70;99.60;;;;;;5083030;28;20036;-79
2022/05/17 02:07:01;;;;;;;4.50;1.60;;;20.60;99.70;;;;;;5086853;28;20122;-79
2022/05/17 02:09:30;;;;;;;6.80;2.42;;;20.70;99.70;;;;;;5086563;28;20076;-79
2022/05/17 02:11:59;;;;;;;3.42;1.80;;;20.10;99.80;;;;;;5089444;28;20048;-79
2022/05/17 02:14:25;;;;;;;3.13;2.08;;;20.70;99.80;;;;;;5086676;28;20032;-79
2022/05/17 02:16:51;;;;;;;2.40;1.60;;;20.60;99.80;;;;;;5086992;28;20041;-79
2022/05/17 02:19:20;;;;;;;5.68;1.80;;;20.60;99.80;;;;;;5087525;28;20052;-79
2022/05/17 02:21:49;;;;;;;2.97;1.92;;;20.60;99.90;;;;;;5086649;28;20036;-79
2022/05/17 02:24:16;;;;;;;2.55;1.48;;;21.00;99.90;;;;;;5084820;28;20516;-79
2022/05/17 02:26:42;;;;;;;3.67;1.70;;;20.20;99.90;;;;;;5088800;28;20566;-79
2022/05/17 02:29:11;;;;;;;2.97;1.40;;;20.50;99.90;;;;;;5081370;28;20083;-80
2022/05/17 02:31:37;;;;;;;4.18;1.60;;;20.60;99.90;;;;;;5087940;28;20040;-79
2022/05/17 02:34:06;;;;;;;4.60;1.52;;;20.50;99.90;;;;;;5086817;28;20485;-79
2022/05/17 02:36:32;;;;;;;5.60;1.83;;;20.50;99.90;;;;;;5085533;28;20139;-79
2022/05/17 02:39:03;;;;;;;6.72;2.90;;;20.50;99.90;;;;;;5084040;28;20468;-79
2022/05/17 02:41:36;;;;;;;5.80;2.45;;;19.80;99.90;;;;;;5090675;28;20048;-79
2022/05/17 02:44:14;;;;;;;3.90;1.50;;;20.50;99.90;;;;;;5088772;28;20043;-79
2022/05/17 02:46:46;;;;;;;4.38;1.67;;;20.50;99.90;;;;;;5090874;28;20052;-79
2022/05/17 02:49:14;;;;;;;;;;;20.40;99.90;;;;;;5099541;27;20048;-79
2022/05/17 02:51:43;;;;;;;3.08;1.85;;;19.90;99.90;;;;;;5092608;28;20053;-78
2022/05/17 02:54:12;;;;;;;5.13;2.10;;;20.30;99.90;;;;;;5093112;28;20127;-79
2022/05/17 02:56:40;;;;;;;6.85;1.83;;;20.30;99.90;;;;;;5091133;28;20087;-79
2022/05/17 02:59:18;;;;;;;3.80;1.80;;;20.20;99.90;;;;;;5093667;28;20091;-79
2022/05/17 03:01:45;;;;;;;7.05;2.17;;;20.30;99.90;;;;;;5092096;28;20036;-79
2022/05/17 03:04:13;;;;;;;3.30;1.88;;;20.20;99.90;;;;;;5090856;28;20032;-79
2022/05/17 03:06:43;;;;;;;3.53;1.75;;;19.90;99.90;;;;;;5085341;28;20056;-79
2022/05/17 03:09:10;;;;;;;2.95;1.75;;;20.10;99.90;;;;;;5089655;28;21068;-79
2022/05/17 03:11:43;;;;;;;3.25;1.55;;;20.10;99.90;;;;;;5082538;28;20052;-79
2022/05/17 03:14:13;;;;;;;5.75;2.08;;;20.10;99.90;;;;;;5088521;28;20610;-79
2022/05/17 03:16:46;;;;;;;3.50;1.70;;;20.00;99.90;;;;;;5093133;28;20127;-79
2022/05/17 03:19:14;;;;;;;4.35;2.15;;;19.70;99.90;;;;;;5088887;28;20100;-79
2022/05/17 03:21:41;;;;;;;4.90;2.00;;;20.00;99.90;;;;;;5088800;28;20544;-78
2022/05/17 03:24:12;;;;;;;3.35;1.90;;;19.90;99.90;;;;;;5088064;28;20039;-79
2022/05/17 03:26:40;;;;;;;2.97;1.88;;;19.70;99.90;;;;;;5091078;28;20044;-79
2022/05/17 03:29:07;;;;;;;5.55;2.28;;;19.90;99.90;;;;;;5086229;28;20579;-79
2022/05/17 03:31:36;;;;;;;8.98;3.20;;;19.60;99.90;;;;;;5091008;28;20919;-79
2022/05/17 03:34:02;;;;;;;4.63;2.38;;;19.90;99.90;;;;;;5087887;28;20098;-79
2022/05/17 03:36:28;;;;;;;5.50;2.55;;;19.80;99.90;;;;;;5107472;27;20086;-78
2022/05/17 03:38:57;;;;;;;6.05;2.33;;;19.80;99.90;;;;;;5101380;27;20055;-79
2022/05/17 03:41:23;;;;;;;5.72;2.20;;;20.00;99.90;;;;;;5110463;27;20208;-79
2022/05/17 03:43:49;;;;;;;4.65;2.15;;;19.80;99.90;;;;;;5092462;27;20970;-79
2022/05/17 03:46:15;;;;;;;5.15;2.70;;;19.80;99.90;;;;;;5084716;27;20039;-80
2022/05/17 03:48:44;;;;;;;4.05;2.38;;;19.70;99.90;;;;;;5114607;27;20047;-79
2022/05/17 03:51:27;;;;;;;3.97;1.92;;;19.90;99.90;;;;;;5110607;27;20043;-79
2022/05/17 03:53:55;;;;;;;4.85;2.53;;;19.70;99.90;;;;;;5099184;27;20047;-79
2022/05/17 03:56:23;;;;;;;3.40;2.38;;;20.20;99.90;;;;;;5092672;27;20770;-79
2022/05/17 03:58:52;;;;;;;7.82;2.30;;;19.50;99.90;;;;;;5092916;27;20051;-79
2022/05/17 04:01:21;;;;;;;5.93;2.05;;;19.60;99.90;;;;;;5108299;27;20044;-78
2022/05/17 04:03:47;;;;;;;4.32;1.63;;;19.60;99.90;;;;;;5090564;27;20035;-79
2022/05/17 04:06:13;;;;;;;4.65;2.05;;;19.50;99.90;;;;;;5101375;27;20040;-79
2022/05/17 04:08:44;;;;;;;4.97;1.77;;;19.50;99.90;;;;;;5092878;27;20078;-79
2022/05/17 04:11:18;;;;;;;3.88;1.67;;;19.50;99.90;;;;;;5092738;27;20098;-79
2022/05/17 04:13:46;;;;;;;3.85;2.63;;;19.50;99.90;;;;;;5090661;27;20048;-78
2022/05/17 04:16:21;;;;;;;4.30;1.67;;;19.50;99.90;;;;;;5098788;27;20054;-79
2022/05/17 04:18:47;;;;;;;2.83;1.67;;;19.60;99.90;;;;;;5090135;27;20072;-79
2022/05/17 04:21:19;;;;;;;2.65;1.50;;;19.40;99.90;;;;;;5090632;27;20063;-79
2022/05/17 04:23:44;;;;;;;3.30;1.80;;;19.30;99.90;;;;;;5090866;27;20056;-78
2022/05/17 04:26:13;;;;;;;7.05;1.92;;;19.30;99.90;;;;;;5094072;27;20445;-79
2022/05/17 04:28:42;;;;;;;4.03;2.33;;;19.30;99.90;;;;;;5084647;27;20594;-79
2022/05/17 04:31:18;;;;;;;4.65;1.88;;;19.30;99.90;;;;;;5091186;27;20928;-79
2022/05/17 04:33:56;;;;;;;5.43;2.35;;;19.30;99.90;;;;;;5102624;27;22315;-79
2022/05/17 04:36:25;;;;;;;2.90;1.95;;;19.30;99.90;;;;;;5103128;27;20051;-79
2022/05/17 04:38:54;;;;;;;4.13;2.63;;;19.10;99.90;;;;;;5091624;27;20040;-78
2022/05/17 04:41:20;;;;;;;3.05;1.75;;;19.20;99.90;;;;;;5092461;27;20066;-79
2022/05/17 04:43:46;;;;;;;2.40;1.50;;;19.20;99.90;;;;;;5088557;27;20075;-79
2022/05/17 04:46:15;;;;;;;6.38;2.67;;;19.20;99.90;;;;;;5106911;27;20334;-78
2022/05/17 04:48:47;;;;;;;5.40;2.10;;;19.20;99.90;;;;;;5093690;27;20050;-78
2022/05/17 04:51:14;;;;;;;2.67;2.00;;;18.90;99.90;;;;;;5082409;27;20043;-78
2022/05/17 04:53:46;;;;;;;3.33;1.80;;;19.50;99.90;;;;;;5092437;27;20132;-79
2022/05/17 04:56:22;;;;;;;6.28;2.10;;;19.20;99.90;;;;;;5111462;27;20044;-79
2022/05/17 04:58:55;;;;;;;5.70;2.08;;;19.20;99.90;;;;;;5102587;27;20047;-79
2022/05/17 05:01:21;;;;;;;5.88;1.90;;;19.20;99.90;;;;;;5110253;27;20032;-79
2022/05/17 05:03:50;;;;;;;6.78;2.72;;;19.20;99.90;;;;;;5087405;27;20445;-79
2022/05/17 05:06:17;;;;;;;8.32;2.00;;;19.20;99.90;;;;;;5086400;27;20092;-79
2022/05/17 05:08:42;;;;;;;5.22;2.03;;;19.20;99.90;;;;;;5104453;27;20055;-78
2022/05/17 05:11:11;;;;;;;5.55;2.67;;;19.20;99.90;;;;;;5114501;27;20036;-79
2022/05/17 05:14:03;;;;;;;7.10;2.70;;;19.20;99.90;;;;;;5117372;27;20043;-79
2022/05/17 05:16:35;;;;;;;7.25;1.92;;;19.20;99.90;;;;;;5103257;27;20086;-80
2022/05/17 05:19:04;;;;;;;5.65;2.28;;;19.20;99.90;;;;;;5093880;27;20291;-80
2022/05/17 05:21:33;;;;;;;8.82;2.17;;;18.90;99.90;;;;;;5100085;27;20055;-75
2022/05/17 05:24:04;;;;;;;7.18;2.85;;;19.20;99.90;;;;;;5089702;27;20044;-77
2022/05/17 05:26:35;;;;;;;5.38;1.83;;;18.50;99.90;;;;;;5110999;27;20063;-77
2022/05/17 05:29:01;;;;;;;5.07;2.03;;;19.30;99.90;;;;;;5111633;27;20075;-76
2022/05/17 05:31:30;;;;;;;3.95;2.47;;;19.30;99.90;;;;;;5086678;27;20035;-78
2022/05/17 05:34:01;;;;;;;6.00;2.58;;;19.30;99.90;;;;;;5112237;27;20040;-77
2022/05/17 05:36:32;;;;;;;5.85;2.25;;;19.30;99.90;;;;;;5109337;27;20054;-77
2022/05/17 05:39:09;;;;;;;8.65;3.15;;;19.30;99.90;;;;;;5106921;27;20545;-77
2022/05/17 05:41:38;;;;;;;7.35;3.55;;;19.30;99.90;;;;;;5087230;27;20055;-76
2022/05/17 05:44:12;;;;;;;8.27;2.50;;;18.50;99.90;;;;;;5093863;27;20035;-76
2022/05/17 05:46:45;;;;;;;5.80;3.03;;;19.40;99.90;;;;;;5113124;27;20054;-77
2022/05/17 05:49:17;;;;;;;6.78;2.70;;;19.30;99.90;;;;;;5092110;27;20087;-77
2022/05/17 05:51:59;;;;;;;;;;;19.40;99.90;;;;;;5097119;27;20115;-78
2022/05/17 05:54:30;;;;;;;11.85;3.78;;;19.40;99.90;;;;;;5093607;27;19919;-77
2022/05/17 05:57:03;;;;;;;12.18;3.65;;;19.40;99.90;;;;;;5096209;27;20135;-76
2022/05/17 05:59:35;;;;;;;11.93;3.40;;;19.50;99.90;;;;;;5086787;27;20062;-76
2022/05/17 06:02:11;;;;;;;5.80;2.35;;;19.40;99.90;;;;;;5093281;27;20077;-77
2022/05/17 06:05:07;;;;;;;8.88;2.45;;;19.50;99.90;;;;;;5093281;27;20050;-78
2022/05/17 06:07:48;;;;;;;7.88;2.08;;;19.50;99.90;;;;;;5090076;27;20146;-78
2022/05/17 06:10:25;;;;;;;24.52;3.90;;;19.50;99.90;;;;;;5086552;27;20059;-79
2022/05/17 06:12:52;;;;;;;7.15;2.60;;;19.50;99.90;;;;;;5084433;27;20054;-77
2022/05/17 06:15:23;;;;;;;7.22;2.63;;;19.60;99.90;;;;;;5082072;27;20075;-84
2022/05/17 06:17:50;;;;;;;5.68;2.90;;;19.60;99.90;;;;;;5114747;27;20085;-80
2022/05/17 06:20:16;;;;;;;3.63;1.90;;;19.60;99.90;;;;;;5097852;27;20097;-80
2022/05/17 06:22:44;;;;;;;5.43;1.92;;;19.60;99.90;;;;;;5113241;27;20104;-80
2022/05/17 06:25:25;;;;;;;13.93;2.13;;;19.60;99.90;;;;;;5117222;27;20033;-79
2022/05/17 06:27:59;;;;;;;7.65;1.90;;;18.40;99.90;;;;;;5098174;27;20055;-76
2022/05/17 06:30:27;;;;;;;5.63;1.48;;;19.60;99.90;;;;;;5118259;27;20046;-77
2022/05/17 06:33:00;;;;;;;3.35;1.38;;;19.70;99.90;;;;;;5091676;27;20039;-78
2022/05/17 06:35:27;;;;;;;5.85;2.13;;;19.70;99.90;;;;;;5092769;28;20092;-77
2022/05/17 06:37:59;;;;;;;4.88;1.80;;;19.70;99.90;;;;;;5092718;28;20403;-78
2022/05/17 06:40:27;;;;;;;9.10;2.38;;;19.70;99.90;;;;;;5104743;27;20064;-77
2022/05/17 06:42:58;;;;;;;5.70;1.73;;;19.80;99.90;;;;;;5096026;28;20044;-80
2022/05/17 06:45:24;;;;;;;7.95;2.40;;;19.80;99.90;;;;;;5091384;28;20125;-78
2022/05/17 06:47:50;;;;;;;7.13;1.90;;;19.80;99.90;;;;;;5097447;28;20950;-79
2022/05/17 06:50:16;;;;;;;11.38;2.63;;;19.80;99.90;;;;;;5098297;28;20647;-78
2022/05/17 06:52:44;;;;;;;6.50;1.50;;;19.80;99.90;;;;;;5095976;27;20474;-78
2022/05/17 06:55:18;;;;;;;3.72;1.65;;;19.80;99.90;;;;;;5096986;27;20043;-78
2022/05/17 06:57:53;;;;;;;3.55;1.48;;;19.90;99.90;;;;;;5095457;28;20520;-79
2022/05/17 07:00:37;;;;;;;4.35;1.65;;;19.60;99.90;;;;;;5094461;28;20043;-79
2022/05/17 07:03:14;;;;;;;4.43;2.33;;;19.90;99.90;;;;;;5094174;28;20517;-79
2022/05/17 07:05:40;;;;;;;5.40;1.98;;;19.50;99.90;;;;;;5084596;28;20047;-79
2022/05/17 07:08:12;;;;;;;4.93;1.20;;;20.00;99.90;;;;;;5091974;28;20508;-79
2022/05/17 07:13:31;;;;;;;1.85;0.95;;;19.80;99.90;;;;;;5092684;28;20052;-79
2022/05/17 07:16:00;;;;;;;3.35;1.20;;;20.00;99.90;;;;;;5101164;27;20101;-80
2022/05/17 07:18:29;;;;;;;1.00;0.80;;;20.00;99.90;;;;;;5093219;27;20580;-80
2022/05/17 07:21:01;;;;;;;4.45;1.90;;;19.40;99.90;;;;;;5090778;27;20629;-80
2022/05/17 07:23:38;;;;;;;4.68;2.15;;;20.00;99.90;;;;;;5088235;28;20044;-81
2022/05/17 07:26:31;;;;;;;2.42;1.38;;;20.20;99.90;;;;;;5082778;28;20044;-81
2022/05/17 07:28:57;;;;;;;3.70;2.05;;;20.10;99.90;;;;;;5089068;28;20056;-80
2022/05/17 07:31:28;;;;;;;4.53;1.30;;;20.10;99.90;;;;;;5089561;28;20226;-79
2022/05/17 07:34:09;;;;;;;14.00;1.73;;;20.50;99.90;;;;;;5080163;28;20048;-79
2022/05/17 07:36:53;;;;;;;2.20;1.25;;;20.20;99.90;;;;;;5084295;28;20117;-79
2022/05/17 07:39:28;;;;;;;5.75;1.27;;;20.00;99.90;;;;;;5093145;28;20036;-79
2022/05/17 07:41:59;;;;;;;4.35;1.20;;;20.20;99.90;;;;;;5092215;28;20135;-79
2022/05/17 07:44:39;;;;;;;16.13;1.60;;;20.20;99.90;;;;;;5084675;28;20040;-79
2022/05/17 07:47:12;;;;;;;5.82;1.70;;;20.20;99.90;;;;;;5092197;28;20041;-78
2022/05/17 07:49:42;;;;;;;4.18;1.13;;;20.20;99.90;;;;;;5084540;28;20052;-78
2022/05/17 07:52:14;;;;;;;2.28;0.88;;;20.20;99.90;;;;;;5088199;28;20617;-79
2022/05/17 07:54:43;;;;;;;;;;;20.30;99.90;;;;;;5090580;28;20045;-78
2022/05/17 07:57:19;;;;;;;3.10;1.42;;;20.30;99.90;;;;;;5089548;28;19922;-80
2022/05/17 08:00:05;;;;;;;12.60;4.75;;;20.40;99.90;;;;;;5078477;28;20078;-81
2022/05/17 08:02:44;;;;;;;1.50;1.13;;;20.40;99.90;;;;;;5089578;28;20060;-80
2022/05/17 08:05:15;;;;;;;4.18;1.38;;;19.40;99.80;;;;;;5080963;28;20036;-79
2022/05/17 08:08:02;;;;;;;2.60;1.27;;;20.60;99.90;;;;;;5081633;28;20040;-80
2022/05/17 08:10:40;;;;;;;10.38;1.85;;;20.40;99.80;;;;;;5082275;28;20044;-80
2022/05/17 08:13:39;;;;;;;4.50;1.20;;;20.40;99.60;;;;;;5089424;28;20055;-80
2022/05/17 08:16:06;;;;;;;3.30;1.13;;;20.50;99.50;;;;;;5090116;28;20040;-80
2022/05/17 08:18:57;;;;;;;9.18;2.88;;;20.50;99.50;;;;;;5084666;28;20080;-80
2022/05/17 08:21:28;;;;;;;1.83;1.40;;;20.60;99.40;;;;;;5093190;28;20036;-80
2022/05/17 08:23:59;;;;;;;3.38;2.15;;;20.60;99.30;;;;;;5092008;28;20225;-80
2022/05/17 08:30:00;;;;;;;5.63;2.83;;;20.60;99.00;;;;;;5089587;28;20052;-79
2022/05/17 08:35:39;;;;;;;2.40;1.20;;;20.50;98.70;;;;;;5093505;27;20056;-80
2022/05/17 08:38:14;;;;;;;2.22;0.73;;;20.60;98.50;;;;;;5085898;27;20139;-80
2022/05/17 08:41:10;;;;;;;1.67;1.05;;;20.80;98.50;;;;;;5092858;27;20446;-80
2022/05/17 08:44:03;;;;;;;4.80;1.10;;;20.90;98.40;;;;;;5093251;27;20128;-80
2022/05/17 08:46:56;;;;;;;5.10;1.40;;;20.80;98.20;;;;;;5092076;27;20048;-80
2022/05/17 08:49:33;;;;;;;3.67;1.15;;;20.80;98.00;;;;;;5109929;27;20039;-81
2022/05/17 08:52:07;;;;;;;4.32;1.05;;;20.80;98.00;;;;;;5092792;27;20044;-80
2022/05/17 08:54:43;;;;;;;5.53;1.50;;;20.90;98.00;;;;;;5111691;27;20081;-80
2022/05/17 08:57:45;;;;;;;2.20;1.05;;;20.90;98.00;;;;;;5059160;28;20137;-80
2022/05/17 09:01:07;;;;;;;1.90;1.17;;;21.00;98.00;;;;;;5059998;28;20056;-81
2022/05/17 09:04:01;;;;;;;;;;;21.00;97.90;;;;;;4992260;28;20098;-78
2022/05/17 09:06:44;;;;;;;3.42;1.60;;;21.00;97.90;;;;;;5058385;28;20357;-80
2022/05/17 09:11:52;;;;;;;2.28;0.93;;;21.10;97.70;;;;;;5057226;28;44424;-80
2022/05/17 09:14:29;;;;;;;4.30;1.05;;;21.10;97.60;;;;;;5055926;28;20067;-79
2022/05/17 09:17:24;;;;;;;1.98;0.98;;;21.10;97.50;;;;;;5061614;28;20076;-80
2022/05/17 09:19:59;;;;;;;1.92;1.08;;;21.20;97.30;;;;;;5044238;28;21247;-82
2022/05/17 09:22:33;;;;;;;2.08;0.60;;;21.40;97.30;;;;;;5082367;27;20058;-80
2022/05/17 09:25:16;;;;;;;1.23;0.75;;;21.40;97.20;;;;;;5093520;27;20047;-81
2022/05/17 09:28:02;;;;;;;2.03;1.42;;;21.30;97.10;;;;;;5090466;27;20053;-82
2022/05/17 09:31:07;;;;;;;3.47;0.90;;;21.40;97.10;;;;;;5088750;27;20147;-83
2022/05/17 09:33:48;;;;;;;6.95;1.08;;;21.70;97.00;;;;;;5090624;27;20048;-82
2022/05/17 09:36:24;;;;;;;5.55;0.95;;;21.80;97.00;;;;;;5084346;27;20143;-81
2022/05/17 09:38:58;;;;;;;2.03;1.20;;;21.80;96.90;;;;;;5084769;27;20048;-81
2022/05/17 09:41:31;;;;;;;1.55;0.90;;;21.20;96.60;;;;;;5092457;27;20059;-81
2022/05/17 09:44:12;;;;;;;1.20;0.77;;;21.50;96.50;;;;;;5094173;27;20127;-81
2022/05/17 09:46:49;;;;;;;2.77;0.90;;;21.60;96.30;;;;;;5093049;27;20600;-81
2022/05/17 09:52:44;;;;;;;2.33;0.80;;;21.50;96.10;;;;;;5115576;27;20048;-80
2022/05/17 09:55:48;;;;;;;1.70;0.80;;;21.60;95.90;;;;;;5095727;27;20047;-81
2022/05/17 09:58:52;;;;;;;4.85;0.95;;;21.70;95.70;;;;;;5006884;27;20092;-81
2022/05/17 10:01:43;;;;;;;2.28;1.20;;;21.90;95.70;;;;;;5086086;27;20035;-82
2022/05/17 10:04:26;;;;;;;2.55;1.38;;;21.80;95.60;;;;;;5110852;27;20126;-81
2022/05/17 10:07:16;;;;;;;4.47;0.93;;;21.80;95.60;;;;;;5095008;27;20523;-82
2022/05/17 10:09:52;;;;;;;3.10;0.90;;;21.60;95.50;;;;;;5092200;27;20032;-82
2022/05/17 10:12:37;;;;;;;2.08;0.68;;;21.80;95.60;;;;;;5096220;27;20036;-82
2022/05/17 10:15:19;;;;;;;0.73;0.60;;;21.80;95.50;;;;;;5096646;27;20048;-81
2022/05/17 10:17:52;;;;;;;;;;;21.90;95.50;;;;;;5093868;27;20046;-81
2022/05/17 10:20:33;;;;;;;5.53;1.25;;;22.00;95.40;;;;;;5096039;27;19919;-81
2022/05/17 10:23:46;;;;;;;2.33;1.00;;;21.90;95.40;;;;;;5097215;27;20131;-81
2022/05/17 10:26:33;;;;;;;1.58;0.93;;;22.00;95.30;;;;;;5105510;27;20043;-82
2022/05/17 10:29:26;;;;;;;3.00;1.00;;;22.10;95.20;;;;;;5093402;27;20056;-80
2022/05/17 10:32:14;;;;;;;4.22;1.20;;;22.10;95.00;;;;;;5086090;27;20043;-78
2022/05/17 10:35:24;;;;;;;3.28;0.90;;;22.00;95.10;;;;;;5113642;27;20047;-80
2022/05/17 10:38:06;;;;;;;2.88;1.15;;;22.10;95.30;;;;;;5113724;27;20569;-80
2022/05/17 10:40:38;;;;;;;3.83;1.40;;;22.10;95.40;;;;;;5092817;27;20032;-78
2022/05/17 10:43:05;;;;;;;1.35;0.88;;;22.20;95.50;;;;;;5098298;27;20044;-85
2022/05/17 10:45:33;;;;;;;1.13;0.80;;;22.30;95.50;;;;;;5087140;27;21022;-78
2022/05/17 10:48:21;;;;;;;1.63;1.25;;;22.30;95.50;;;;;;5096213;27;20047;-78
2022/05/17 10:50:54;;;;;;;1.23;0.82;;;22.40;95.40;;;;;;5113272;27;20044;-77
2022/05/17 10:53:26;;;;;;;4.13;1.33;;;22.40;95.60;;;;;;5097098;27;20563;-79
2022/05/17 10:56:04;;;;;;;4.40;1.80;;;22.40;95.60;;;;;;5111997;27;20042;-78
2022/05/17 10:58:52;;;;;;;2.25;1.13;;;22.40;95.70;;;;;;5089778;27;20043;-78
2022/05/17 11:01:38;;;;;;;2.00;1.00;;;22.20;95.70;;;;;;5091985;27;20560;-78
2022/05/17 11:04:32;;;;;;;3.58;1.83;;;22.40;95.90;;;;;;5114022;27;20924;-78
2022/05/17 11:07:04;;;;;;;4.78;1.50;;;22.50;95.90;;;;;;5089991;27;20032;-78
2022/05/17 11:09:53;;;;;;;3.53;1.55;;;22.30;95.90;;;;;;5090458;27;20048;-82
2022/05/17 11:12:34;;;;;;;4.57;1.98;;;22.50;95.90;;;;;;5094058;27;20188;-80
2022/05/17 11:15:15;;;;;;;3.95;1.02;;;22.30;96.00;;;;;;5096818;27;20044;-79
2022/05/17 11:17:55;;;;;;;4.80;1.42;;;22.60;96.10;;;;;;5096210;27;20048;-80
2022/05/17 11:20:47;;;;;;;3.58;1.25;;;22.60;96.10;;;;;;5087289;27;20043;-79
2022/05/17 11:23:28;;;;;;;;;;;22.70;96.00;;;;;;5112353;27;20044;-82
2022/05/17 11:26:13;;;;;;;3.67;1.50;;;22.70;96.00;;;;;;5114041;27;19927;-79
2022/05/17 11:28:54;;;;;;;2.83;1.58;;;22.70;96.20;;;;;;5104769;27;20101;-79
2022/05/17 11:31:29;;;;;;;2.15;1.25;;;22.70;96.20;;;;;;5085000;27;20043;-81
2022/05/17 11:34:32;;;;;;;3.10;1.80;;;22.80;96.20;;;;;;5110264;27;20047;-82
2022/05/17 11:37:26;;;;;;;5.05;1.65;;;23.00;96.30;;;;;;5102169;27;20094;-83
2022/05/17 11:39:56;;;;;;;3.90;1.10;;;22.90;96.20;;;;;;5098850;27;20052;-82
2022/05/17 11:43:40;;;;;;;2.90;1.85;;;23.00;96.20;;;;;;5088990;27;20135;-81
2022/05/17 11:45:53;;;;;;;3.58;2.55;;;23.10;96.10;;;;;;5115768;27;20932;-81
2022/05/17 11:48:47;;;;;;;3.25;2.10;;;23.00;96.10;;;;;;5089699;27;20074;-81
2022/05/17 11:51:13;;;;;;;2.78;1.25;;;23.10;96.10;;;;;;5099612;27;20078;-81
2022/05/17 11:53:51;;;;;;;1.95;1.33;;;23.10;96.30;;;;;;5115607;27;20047;-81
2022/05/17 11:56:36;;;;;;;2.33;1.27;;;23.20;96.10;;;;;;5090888;27;20055;-81
2022/05/17 11:59:15;;;;;;;4.40;1.35;;;23.20;96.20;;;;;;5098030;27;20181;-81
2022/05/17 12:01:44;;;;;;;4.03;1.90;;;23.30;96.20;;;;;;5090351;27;20040;-80
2022/05/17 12:04:23;;;;;;;5.28;1.40;;;23.30;96.30;;;;;;5098022;27;20035;-81
2022/05/17 12:06:55;;;;;;;2.25;1.52;;;23.40;96.40;;;;;;5088800;27;20047;-82
2022/05/17 12:09:24;;;;;;;4.85;1.67;;;23.60;96.50;;;;;;5096889;27;20094;-81
2022/05/17 12:11:53;;;;;;;6.63;1.60;;;23.60;96.40;;;;;;5090305;27;20032;-81
2022/05/17 12:14:30;;;;;;;3.88;1.50;;;23.70;96.30;;;;;;5088265;27;20056;-81
2022/05/17 12:17:10;;;;;;;6.20;1.75;;;24.20;96.40;;;;;;5081076;27;20047;-81
2022/05/17 12:19:52;;;;;;;2.63;1.40;;;23.80;96.30;;;;;;5089729;27;20043;-81
2022/05/17 12:22:38;;;;;;;6.78;1.88;;;24.10;96.30;;;;;;5091664;27;20489;-81
2022/05/17 12:25:21;;;;;;;3.42;1.20;;;24.60;96.10;;;;;;5116149;27;20197;-81
2022/05/17 12:27:49;;;;;;;3.28;1.58;;;24.30;95.80;;;;;;5100009;27;20032;-81
2022/05/17 12:33:12;;;;;;;4.68;1.55;;;24.20;95.60;;;;;;5116038;27;20547;-81
2022/05/17 12:35:38;;;;;;;11.18;1.70;;;24.10;95.60;;;;;;5095787;27;20100;-81
2022/05/17 12:43:02;;;;;;;3.20;1.15;;;24.10;95.70;;;;;;5089661;27;20653;-81
2022/05/17 12:43:51;;;;;;;3.72;1.98;;;24.30;95.60;;;;;;5115155;27;20036;-81
2022/05/17 12:46:31;;;;;;;6.55;1.75;;;24.30;95.50;;;;;;5096707;27;20612;-81
2022/05/17 12:49:02;;;;;;;4.20;1.63;;;24.20;95.40;;;;;;5113451;27;20075;-81
2022/05/17 12:51:31;;;;;;;4.63;1.58;;;24.40;95.50;;;;;;5096898;27;20095;-81
2022/05/17 12:54:03;;;;;;;6.55;2.63;;;24.60;95.50;;;;;;5115137;27;20040;-81
2022/05/17 12:56:36;;;;;;;4.60;1.95;;;24.60;95.30;;;;;;5115636;27;20840;-82
2022/05/17 12:59:06;;;;;;;5.38;1.63;;;24.70;95.20;;;;;;5088504;27;20048;-81
2022/05/17 13:01:44;;;;;;;3.45;1.40;;;24.70;95.20;;;;;;5089188;27;20040;-82
2022/05/17 13:04:26;;;;;;;3.22;1.80;;;24.90;95.30;;;;;;5089811;27;20377;-81
2022/05/17 13:07:03;;;;;;;3.65;1.50;;;24.90;95.20;;;;;;5095542;27;20110;-82
2022/05/17 13:09:30;;;;;;;4.07;1.67;;;24.70;95.10;;;;;;5115253;27;20039;-81
2022/05/17 13:11:56;;;;;;;4.97;1.60;;;24.70;95.00;;;;;;5096086;27;20044;-81
2022/05/17 13:14:31;;;;;;;3.08;1.60;;;24.70;94.90;;;;;;5090583;27;20122;-82
2022/05/17 13:17:23;;;;;;;3.33;1.75;;;24.70;94.80;;;;;;5114121;27;20406;-82
2022/05/17 13:20:05;;;;;;;6.20;1.83;;;24.80;94.80;;;;;;5096185;27;20034;-82
2022/05/17 13:22:35;;;;;;;3.67;1.40;;;25.00;94.80;;;;;;5097403;27;20174;-82
2022/05/17 13:25:07;;;;;;;4.00;1.63;;;25.30;94.80;;;;;;5096598;27;20050;-82
2022/05/17 13:27:44;;;;;;;6.97;2.33;;;25.30;94.60;;;;;;5097700;27;20047;-81
2022/05/17 13:30:22;;;;;;;2.60;1.42;;;25.30;94.40;;;;;;5115023;27;20146;-81
2022/05/17 13:32:53;;;;;;;2.45;1.35;;;25.40;94.30;;;;;;5089976;27;20074;-81
2022/05/17 13:35:44;;;;;;;9.93;1.90;;;25.50;94.20;;;;;;5095423;27;20082;-81
2022/05/17 13:38:20;;;;;;;7.55;2.60;;;25.60;94.10;;;;;;5137018;27;20055;-81
2022/05/17 13:40:57;;;;;;;8.45;1.83;;;25.60;94.20;;;;;;5108843;27;20039;-81
2022/05/17 13:43:36;;;;;;;2.72;1.50;;;25.50;94.00;;;;;;5117068;27;20035;-81
2022/05/17 13:46:21;;;;;;;4.75;2.00;;;25.60;93.90;;;;;;5134604;27;20039;-81
2022/05/17 13:48:52;;;;;;;5.65;2.15;;;25.70;93.80;;;;;;5134606;27;20118;-82
2022/05/17 13:51:36;;;;;;;5.55;1.98;;;25.70;93.80;;;;;;5110055;27;20564;-81